createdAt,value
2022-08-30T00:00:29.883Z,19.29
2022-08-30T00:03:17.893Z,19.48
2022-08-30T00:06:05.753Z,19.40
2022-08-30T00:08:53.333Z,19.37
2022-08-30T00:11:40.929Z,19.45
2022-08-30T00:14:28.492Z,19.77
2022-08-30T00:17:16.071Z,19.80
2022-08-30T00:20:03.646Z,19.92
2022-08-30T00:22:51.254Z,20.37
2022-08-30T00:25:38.824Z,20.54
2022-08-30T00:28:26.420Z,20.55
2022-08-30T00:31:15.199Z,20.53
2022-08-30T00:34:03.220Z,20.05
2022-08-30T00:36:50.809Z,20.05
2022-08-30T00:39:38.412Z,19.96
2022-08-30T00:42:25.997Z,19.53
2022-08-30T00:45:13.602Z,19.47
2022-08-30T00:48:01.172Z,19.76
2022-08-30T00:50:48.773Z,20.04
2022-08-30T00:53:36.373Z,19.93
2022-08-30T00:56:23.978Z,20.09
2022-08-30T00:59:11.547Z,20.10
2022-08-30T01:01:59.201Z,20.21
2022-08-30T01:04:46.874Z,20.37
2022-08-30T01:07:34.484Z,20.56
2022-08-30T01:10:22.086Z,20.28
2022-08-30T01:13:09.697Z,20.09
2022-08-30T01:15:57.307Z,19.91
2022-08-30T01:18:44.983Z,19.52
2022-08-30T01:21:32.583Z,19.55
2022-08-30T01:24:20.195Z,19.98
2022-08-30T01:27:07.772Z,20.38
2022-08-30T01:29:55.363Z,20.74
2022-08-30T01:32:42.970Z,20.51
2022-08-30T01:35:30.574Z,20.26
2022-08-30T01:38:18.191Z,19.69
2022-08-30T01:41:05.781Z,19.54
2022-08-30T01:43:53.393Z,19.80
2022-08-30T01:46:40.967Z,20.20
2022-08-30T01:49:28.566Z,20.34
2022-08-30T01:52:16.153Z,19.73
2022-08-30T01:55:03.756Z,18.65
2022-08-30T01:57:51.331Z,18.02
2022-08-30T02:00:40.952Z,17.96
2022-08-30T02:03:28.559Z,17.46
2022-08-30T02:06:16.274Z,16.96
2022-08-30T02:09:03.847Z,17.22
2022-08-30T02:11:51.464Z,17.73
2022-08-30T02:14:39.055Z,17.48
2022-08-30T02:17:26.659Z,17.26
2022-08-30T02:20:14.240Z,17.13
2022-08-30T02:23:01.846Z,17.41
2022-08-30T02:25:49.457Z,17.02
2022-08-30T02:28:49.499Z,17.08
2022-08-30T02:31:37.790Z,17.16
2022-08-30T02:34:25.393Z,17.38
2022-08-30T02:37:12.978Z,17.52
2022-08-30T02:40:00.635Z,17.65
2022-08-30T02:42:48.281Z,17.43
2022-08-30T02:45:35.944Z,17.12
2022-08-30T02:48:23.585Z,16.83
2022-08-30T02:51:11.357Z,17.10
2022-08-30T02:53:59.387Z,17.29
2022-08-30T02:56:46.976Z,17.31
2022-08-30T02:59:34.793Z,17.11
2022-08-30T03:02:22.379Z,16.88
2022-08-30T03:05:09.964Z,17.13
2022-08-30T03:07:57.557Z,17.39
2022-08-30T03:10:45.174Z,17.64
2022-08-30T03:13:32.760Z,18.04
2022-08-30T03:16:20.394Z,17.61
2022-08-30T03:19:08.021Z,17.28
2022-08-30T03:21:55.611Z,17.71
2022-08-30T03:24:43.203Z,18.87
2022-08-30T03:27:30.818Z,17.93
2022-08-30T03:30:18.396Z,16.54
2022-08-30T03:33:05.997Z,16.37
2022-08-30T03:35:54.744Z,16.37
2022-08-30T03:38:42.341Z,16.07
2022-08-30T03:41:29.945Z,16.17
2022-08-30T03:44:17.519Z,16.42
2022-08-30T03:47:05.130Z,16.57
2022-08-30T03:49:52.724Z,16.47
2022-08-30T03:52:40.331Z,16.18
2022-08-30T03:55:27.907Z,16.18
2022-08-30T03:58:15.530Z,16.17
2022-08-30T04:01:06.955Z,15.96
2022-08-30T04:03:54.609Z,16.34
2022-08-30T04:06:42.190Z,16.50
2022-08-30T04:09:31.782Z,16.95
2022-08-30T04:12:22.597Z,16.80
2022-08-30T04:15:10.531Z,16.76
2022-08-30T04:17:58.143Z,16.83
2022-08-30T04:20:45.732Z,16.75
2022-08-30T04:23:33.424Z,16.87
2022-08-30T04:26:21.003Z,17.15
2022-08-30T04:29:08.613Z,17.85
2022-08-30T04:31:56.295Z,17.83
2022-08-30T04:34:43.966Z,17.87
2022-08-30T04:37:31.554Z,18.81
2022-08-30T04:40:19.191Z,19.39
2022-08-30T04:43:06.820Z,19.91
2022-08-30T04:45:54.485Z,20.28
2022-08-30T04:48:42.140Z,20.59
2022-08-30T04:51:29.754Z,20.04
2022-08-30T04:54:17.342Z,19.67
2022-08-30T04:57:04.964Z,19.84
2022-08-30T04:59:52.562Z,20.05
2022-08-30T05:02:40.215Z,20.61
2022-08-30T05:05:27.813Z,21.09
2022-08-30T05:08:15.454Z,21.42
2022-08-30T05:11:03.042Z,21.01
2022-08-30T05:13:50.690Z,19.54
2022-08-30T05:16:38.352Z,18.38
2022-08-30T05:19:25.992Z,17.91
2022-08-30T05:22:13.594Z,17.78
2022-08-30T05:25:01.184Z,17.82
2022-08-30T05:27:48.779Z,17.76
2022-08-30T05:30:36.369Z,17.95
2022-08-30T05:33:23.968Z,17.77
2022-08-30T05:36:11.559Z,17.40
2022-08-30T05:38:59.173Z,17.60
2022-08-30T05:41:46.760Z,18.19
2022-08-30T05:44:34.377Z,18.61
2022-08-30T05:47:21.959Z,19.02
2022-08-30T05:50:09.576Z,19.59
2022-08-30T05:52:57.158Z,20.08
2022-08-30T05:55:44.777Z,19.86
2022-08-30T05:58:32.364Z,19.76
2022-08-30T06:01:19.965Z,19.86
2022-08-30T06:04:07.563Z,19.95
2022-08-30T06:06:55.161Z,19.92
2022-08-30T06:09:42.865Z,20.02
2022-08-30T06:12:30.431Z,20.59
2022-08-30T06:15:18.115Z,20.38
2022-08-30T06:18:07.688Z,20.80
2022-08-30T06:20:55.291Z,21.59
2022-08-30T06:23:42.853Z,21.58
2022-08-30T06:26:30.450Z,21.76
2022-08-30T06:29:18.047Z,21.35
2022-08-30T06:32:05.758Z,21.50
2022-08-30T06:34:53.333Z,21.55
2022-08-30T06:37:40.934Z,21.05
2022-08-30T06:40:28.580Z,20.51
2022-08-30T06:43:16.225Z,20.70
2022-08-30T06:46:03.850Z,20.69
2022-08-30T06:48:51.424Z,19.68
2022-08-30T06:51:41.270Z,20.18
2022-08-30T06:54:29.737Z,20.76
2022-08-30T06:57:17.342Z,21.13
2022-08-30T07:00:04.927Z,21.52
2022-08-30T07:02:52.612Z,21.52
2022-08-30T07:05:40.435Z,21.24
2022-08-30T07:08:28.040Z,20.98
2022-08-30T07:11:15.622Z,20.63
2022-08-30T07:14:03.229Z,20.53
2022-08-30T07:16:51.334Z,20.38
2022-08-30T07:19:39.976Z,20.28
2022-08-30T07:22:29.545Z,20.65
2022-08-30T07:25:17.134Z,20.85
2022-08-30T07:28:07.527Z,20.90
2022-08-30T07:30:55.144Z,20.80
2022-08-30T07:33:42.801Z,20.66
2022-08-30T07:36:30.416Z,20.74
2022-08-30T07:39:18.015Z,20.44
2022-08-30T07:42:05.628Z,20.22
2022-08-30T07:44:56.623Z,20.43
2022-08-30T07:47:44.579Z,20.27
2022-08-30T07:50:32.177Z,20.35
2022-08-30T07:53:19.826Z,20.42
2022-08-30T07:56:07.490Z,20.48
2022-08-30T07:58:55.121Z,20.62
2022-08-30T08:01:42.789Z,20.98
2022-08-30T08:04:30.450Z,21.08
2022-08-30T08:07:18.051Z,20.77
2022-08-30T08:10:05.657Z,20.85
2022-08-30T08:12:53.267Z,21.17
2022-08-30T08:15:42.673Z,21.44
2022-08-30T08:18:30.306Z,21.68
2022-08-30T08:21:17.917Z,22.11
2022-08-30T08:24:05.537Z,22.51
2022-08-30T08:26:53.136Z,22.99
2022-08-30T08:29:40.780Z,23.04
2022-08-30T08:32:28.364Z,23.25
2022-08-30T08:35:15.971Z,23.48
2022-08-30T08:38:03.578Z,24.33
2022-08-30T08:40:51.180Z,24.79
2022-08-30T08:43:40.809Z,25.16
2022-08-30T08:46:28.454Z,25.36
2022-08-30T08:49:16.236Z,23.67
2022-08-30T08:52:03.833Z,23.26
2022-08-30T08:54:51.489Z,23.03
2022-08-30T08:57:39.084Z,23.98
2022-08-30T09:00:26.691Z,24.48
2022-08-30T09:03:14.279Z,23.42
2022-08-30T09:06:02.030Z,22.53
2022-08-30T09:08:49.857Z,23.16
2022-08-30T09:11:37.462Z,23.37
2022-08-30T09:14:25.414Z,23.23
2022-08-30T09:17:18.009Z,23.74
2022-08-30T09:20:05.986Z,23.99
2022-08-30T09:22:53.551Z,24.28
2022-08-30T09:25:42.007Z,24.59
2022-08-30T09:28:29.611Z,24.97
2022-08-30T09:31:17.303Z,25.18
2022-08-30T09:34:04.923Z,25.72
2022-08-30T09:36:52.547Z,26.09
2022-08-30T09:39:40.141Z,26.22
2022-08-30T09:42:27.771Z,26.80
2022-08-30T09:45:15.347Z,26.95
2022-08-30T09:48:02.963Z,26.96
2022-08-30T09:50:50.766Z,27.54
2022-08-30T09:54:01.097Z,27.28
2022-08-30T09:56:51.120Z,27.71
2022-08-30T09:59:38.931Z,27.91
2022-08-30T10:02:28.476Z,26.41
2022-08-30T10:05:17.888Z,24.96
2022-08-30T10:08:05.471Z,24.81
2022-08-30T10:10:53.186Z,25.31
2022-08-30T10:13:40.778Z,24.74
2022-08-30T10:16:28.408Z,24.84
2022-08-30T10:19:16.006Z,25.79
2022-08-30T10:22:03.726Z,26.18
2022-08-30T10:24:51.611Z,24.75
2022-08-30T10:27:39.241Z,24.08
2022-08-30T10:30:27.188Z,23.50
2022-08-30T10:33:15.231Z,23.79
2022-08-30T10:36:04.795Z,23.99
2022-08-30T10:38:58.167Z,23.66
2022-08-30T10:41:45.769Z,23.71
2022-08-30T10:44:33.639Z,23.65
2022-08-30T10:47:23.082Z,24.43
2022-08-30T10:50:11.179Z,24.64
2022-08-30T10:52:59.175Z,25.19
2022-08-30T10:55:49.980Z,25.62
2022-08-30T10:58:37.874Z,25.89
2022-08-30T11:01:28.303Z,25.47
2022-08-30T11:04:16.270Z,25.39
2022-08-30T11:07:09.671Z,26.30
2022-08-30T11:09:57.598Z,26.73
2022-08-30T11:12:45.201Z,26.77
2022-08-30T11:15:32.778Z,27.08
2022-08-30T11:18:21.809Z,26.61
2022-08-30T11:21:14.273Z,25.95
2022-08-30T11:24:01.981Z,27.12
2022-08-30T11:26:49.588Z,27.91
2022-08-30T11:29:37.186Z,27.06
2022-08-30T11:32:24.826Z,25.73
2022-08-30T11:35:12.488Z,26.38
2022-08-30T11:38:00.111Z,25.13
2022-08-30T11:40:47.709Z,24.48
2022-08-30T11:43:36.548Z,23.97
2022-08-30T11:46:24.665Z,24.09
2022-08-30T11:49:12.325Z,24.45
2022-08-30T11:52:26.934Z,24.42
2022-08-30T11:55:07.477Z,24.67
2022-08-30T11:57:55.087Z,24.38
2022-08-30T12:00:42.667Z,23.99
2022-08-30T12:03:31.417Z,24.87
2022-08-30T12:06:19.729Z,25.11
2022-08-30T12:09:12.320Z,25.00
2022-08-30T12:11:59.914Z,24.64
2022-08-30T12:14:47.938Z,24.35
2022-08-30T12:17:35.525Z,23.87
2022-08-30T12:20:23.196Z,23.84
2022-08-30T12:23:12.775Z,24.55
2022-08-30T12:26:00.389Z,24.89
2022-08-30T12:28:48.221Z,25.32
2022-08-30T12:31:36.216Z,25.25
2022-08-30T12:34:23.879Z,25.83
2022-08-30T12:37:12.263Z,26.56
2022-08-30T12:39:59.947Z,26.79
2022-08-30T12:42:47.596Z,26.46
2022-08-30T12:45:35.208Z,26.64
2022-08-30T12:48:23.256Z,26.80
2022-08-30T12:51:10.867Z,26.73
2022-08-30T12:53:58.958Z,26.38
2022-08-30T12:56:49.789Z,26.09
2022-08-30T12:59:37.877Z,26.17
2022-08-30T13:02:25.515Z,26.41
2022-08-30T13:05:13.264Z,26.48
2022-08-30T13:08:01.181Z,26.47
2022-08-30T13:10:48.788Z,26.36
2022-08-30T13:13:36.499Z,26.58
2022-08-30T13:16:24.139Z,26.82
2022-08-30T13:19:11.753Z,27.10
2022-08-30T13:21:59.519Z,26.61
2022-08-30T13:24:47.087Z,26.96
2022-08-30T13:27:36.918Z,27.10
2022-08-30T13:30:24.818Z,27.38
2022-08-30T13:33:13.504Z,26.74
2022-08-30T13:36:03.095Z,26.77
2022-08-30T13:38:50.687Z,26.72
2022-08-30T13:41:38.271Z,27.03
2022-08-30T13:44:28.164Z,27.13
2022-08-30T13:50:23.301Z,27.77
2022-08-30T13:53:11.085Z,27.62
2022-08-30T13:55:58.783Z,27.12
2022-08-30T13:58:46.461Z,27.11
2022-08-30T14:02:07.453Z,27.07
2022-08-30T14:04:41.803Z,27.17
2022-08-30T14:07:29.427Z,27.62
2022-08-30T14:10:32.869Z,27.53
2022-08-30T14:13:20.901Z,28.18
2022-08-30T14:16:27.580Z,27.82
2022-08-30T14:19:15.454Z,28.88
2022-08-30T14:22:03.069Z,29.36
2022-08-30T14:24:50.668Z,29.42
2022-08-30T14:27:38.361Z,29.09
2022-08-30T14:30:25.944Z,29.30
2022-08-30T14:33:13.633Z,28.60
2022-08-30T14:36:01.222Z,27.80
2022-08-30T14:38:48.827Z,27.80
2022-08-30T14:41:38.969Z,27.60
2022-08-30T14:44:41.274Z,27.35
2022-08-30T14:47:37.804Z,26.99
2022-08-30T14:50:25.542Z,27.89
2022-08-30T14:53:15.603Z,28.04
2022-08-30T14:56:04.360Z,27.73
2022-08-30T14:58:51.965Z,26.37
2022-08-30T15:01:39.550Z,26.30
2022-08-30T15:04:27.560Z,25.94
2022-08-30T15:07:15.194Z,26.18
2022-08-30T15:10:02.818Z,25.68
2022-08-30T15:12:50.399Z,26.51
2022-08-30T15:15:41.383Z,25.79
2022-08-30T15:18:30.954Z,25.02
2022-08-30T15:21:18.567Z,24.17
2022-08-30T15:24:06.307Z,24.65
2022-08-30T15:26:54.179Z,24.54
2022-08-30T15:29:42.481Z,24.40
2022-08-30T15:32:30.113Z,24.31
2022-08-30T15:35:19.683Z,24.37
2022-08-30T15:38:10.447Z,23.72
2022-08-30T15:41:00.100Z,23.91
2022-08-30T15:43:49.479Z,24.20
2022-08-30T15:46:37.110Z,23.43
2022-08-30T15:49:24.771Z,22.90
2022-08-30T15:52:12.368Z,22.76
2022-08-30T15:54:59.974Z,22.73
2022-08-30T15:57:47.561Z,22.44
2022-08-30T16:00:35.224Z,22.20
2022-08-30T16:03:22.848Z,22.15
2022-08-30T16:06:10.498Z,22.13
2022-08-30T16:08:58.243Z,22.33
2022-08-30T16:11:45.845Z,22.17
2022-08-30T16:14:34.211Z,22.37
2022-08-30T16:17:21.829Z,22.34
2022-08-30T16:20:09.633Z,22.20
2022-08-30T16:22:59.527Z,22.09
2022-08-30T16:25:47.100Z,21.74
2022-08-30T16:28:34.808Z,21.41
2022-08-30T16:31:24.475Z,20.96
2022-08-30T16:34:13.751Z,21.21
2022-08-30T16:37:01.332Z,21.14
2022-08-30T16:39:49.034Z,21.22
2022-08-30T16:42:37.037Z,21.40
2022-08-30T16:45:28.581Z,21.36
2022-08-30T16:48:18.959Z,21.13
2022-08-30T16:51:06.598Z,20.89
2022-08-30T16:53:55.762Z,20.35
2022-08-30T16:56:43.390Z,20.57
2022-08-30T16:59:32.642Z,20.51
2022-08-30T17:02:20.470Z,21.69
2022-08-30T17:05:08.137Z,21.82
2022-08-30T17:07:59.981Z,22.23
2022-08-30T17:10:51.000Z,22.62
2022-08-30T17:13:39.149Z,22.57
2022-08-30T17:16:27.939Z,23.34
2022-08-30T17:19:16.291Z,23.01
2022-08-30T17:22:16.485Z,22.50
2022-08-30T17:25:04.092Z,21.40
2022-08-30T17:27:52.878Z,21.15
2022-08-30T17:30:40.873Z,19.68
2022-08-30T17:33:30.468Z,18.26
2022-08-30T17:36:18.063Z,17.52
2022-08-30T17:39:11.440Z,16.97
2022-08-30T17:42:00.891Z,17.70
2022-08-30T17:44:48.632Z,17.77
2022-08-30T17:47:36.511Z,17.77
2022-08-30T17:50:24.180Z,17.32
2022-08-30T17:53:15.670Z,16.38
2022-08-30T17:56:04.691Z,16.21
2022-08-30T17:58:52.300Z,17.10
2022-08-30T18:01:40.203Z,16.19
2022-08-30T18:04:27.800Z,15.60
2022-08-30T18:07:15.372Z,15.48
2022-08-30T18:10:02.986Z,15.45
2022-08-30T18:12:50.608Z,15.57
2022-08-30T18:15:38.461Z,15.81
2022-08-30T18:18:31.973Z,15.89
2022-08-30T18:21:19.626Z,15.95
2022-08-30T18:24:09.747Z,16.12
2022-08-30T18:27:00.302Z,15.81
2022-08-30T18:29:49.930Z,15.77
2022-08-30T18:32:38.086Z,15.92
2022-08-30T18:35:25.936Z,16.12
2022-08-30T18:38:13.578Z,15.89
2022-08-30T18:41:02.330Z,15.86
2022-08-30T18:44:01.854Z,15.92
2022-08-30T18:46:57.501Z,16.07
2022-08-30T18:49:45.130Z,16.12
2022-08-30T18:52:32.741Z,16.19
2022-08-30T18:55:20.349Z,16.48
2022-08-30T18:58:08.142Z,16.40
2022-08-30T19:00:58.591Z,16.27
2022-08-30T19:03:46.187Z,16.17
2022-08-30T19:06:34.971Z,16.27
2022-08-30T19:09:26.667Z,16.39
2022-08-30T19:12:14.349Z,16.35
2022-08-30T19:15:01.953Z,16.25
2022-08-30T19:17:58.724Z,16.24
2022-08-30T19:20:46.341Z,16.26
2022-08-30T19:23:34.954Z,16.28
2022-08-30T19:26:22.563Z,16.18
2022-08-30T19:29:10.141Z,16.04
2022-08-30T19:31:58.415Z,16.13
2022-08-30T19:34:46.267Z,16.09
2022-08-30T19:37:34.393Z,16.35
2022-08-30T19:40:24.121Z,16.34
2022-08-30T19:43:13.238Z,16.25
2022-08-30T19:46:00.945Z,16.34
2022-08-30T19:48:48.556Z,16.45
2022-08-30T19:51:36.142Z,16.47
2022-08-30T19:54:24.282Z,16.59
2022-08-30T19:57:11.855Z,16.56
2022-08-30T20:00:01.823Z,16.45
2022-08-30T20:02:50.843Z,16.47
2022-08-30T20:05:39.591Z,16.47
2022-08-30T20:08:27.186Z,16.55
2022-08-30T20:11:14.816Z,16.56
2022-08-30T20:14:02.399Z,16.62
2022-08-30T20:16:52.506Z,16.57
2022-08-30T20:19:40.106Z,16.52
2022-08-30T20:22:27.719Z,16.79
2022-08-30T20:25:18.931Z,17.32
2022-08-30T20:28:06.709Z,17.30
2022-08-30T20:30:54.331Z,16.79
2022-08-30T20:33:42.027Z,17.10
2022-08-30T20:36:29.603Z,17.24
2022-08-30T20:39:17.374Z,17.34
2022-08-30T20:42:05.273Z,17.41
2022-08-30T20:44:52.936Z,17.18
2022-08-30T20:47:40.539Z,16.91
2022-08-30T20:50:28.146Z,17.21
2022-08-30T20:53:15.735Z,17.50
2022-08-30T20:56:03.343Z,17.81
2022-08-30T20:58:50.910Z,18.08
2022-08-30T21:01:38.559Z,18.01
2022-08-30T21:04:26.192Z,18.20
2022-08-30T21:07:13.770Z,18.41
2022-08-30T21:10:01.393Z,19.00
2022-08-30T21:12:48.998Z,19.25
2022-08-30T21:15:37.938Z,19.77
2022-08-30T21:18:25.817Z,20.21
2022-08-30T21:21:13.470Z,19.82
2022-08-30T21:24:01.089Z,20.01
2022-08-30T21:26:48.674Z,19.92
2022-08-30T21:29:36.273Z,20.03
2022-08-30T21:32:25.905Z,20.52
2022-08-30T21:35:13.530Z,20.26
2022-08-30T21:38:01.145Z,19.72
2022-08-30T21:40:48.818Z,20.42
2022-08-30T21:43:36.524Z,20.71
2022-08-30T21:46:24.166Z,21.05
2022-08-30T21:49:11.794Z,20.60
2022-08-30T21:51:59.377Z,21.16
2022-08-30T21:54:46.987Z,21.29
2022-08-30T21:57:34.576Z,21.42
2022-08-30T22:00:22.179Z,21.18
2022-08-30T22:03:09.796Z,20.38
2022-08-30T22:05:57.553Z,20.50
2022-08-30T22:08:45.131Z,20.62
2022-08-30T22:11:32.745Z,20.53
2022-08-30T22:14:20.331Z,19.55
2022-08-30T22:17:07.980Z,19.11
2022-08-30T22:19:55.624Z,19.39
2022-08-30T22:22:43.230Z,19.26
2022-08-30T22:25:30.808Z,19.11
2022-08-30T22:28:18.413Z,18.55
2022-08-30T22:31:05.984Z,18.70
2022-08-30T22:33:53.563Z,17.50
2022-08-30T22:36:41.155Z,17.87
2022-08-30T22:39:28.859Z,18.64
2022-08-30T22:42:18.450Z,18.81
2022-08-30T22:45:06.132Z,18.56
2022-08-30T22:47:57.817Z,19.48
2022-08-30T22:50:45.413Z,19.19
2022-08-30T22:53:33.015Z,18.80
2022-08-30T22:56:21.566Z,19.31
2022-08-30T22:59:09.173Z,19.67
2022-08-30T23:01:56.902Z,20.16
2022-08-30T23:04:44.545Z,20.51
2022-08-30T23:07:32.146Z,20.78
2022-08-30T23:10:19.829Z,21.01
2022-08-30T23:13:07.571Z,21.07
2022-08-30T23:15:55.197Z,20.70
2022-08-30T23:18:42.791Z,20.42
2022-08-30T23:21:30.392Z,20.69
2022-08-30T23:24:17.977Z,20.90
2022-08-30T23:27:05.604Z,21.05
2022-08-30T23:29:53.246Z,21.21
2022-08-30T23:32:40.853Z,20.72
2022-08-30T23:35:29.703Z,19.67
2022-08-30T23:38:17.467Z,19.32
2022-08-30T23:41:05.032Z,19.06
2022-08-30T23:43:52.625Z,18.19
2022-08-30T23:46:41.750Z,17.96
2022-08-30T23:49:29.343Z,17.92
2022-08-30T23:52:16.933Z,18.30
2022-08-30T23:55:04.632Z,18.80
2022-08-30T23:57:52.218Z,18.72
